createdAt,value
2019-05-18T00:00:24.865Z,56.80
2019-05-18T00:01:24.854Z,56.80
2019-05-18T00:02:24.839Z,56.80
2019-05-18T00:03:24.829Z,56.80
2019-05-18T00:04:24.861Z,56.80
2019-05-18T00:05:24.814Z,56.80
2019-05-18T00:06:24.799Z,56.80
2019-05-18T00:07:24.785Z,56.80
2019-05-18T00:08:24.777Z,56.80
2019-05-18T00:09:24.765Z,56.80
2019-05-18T00:10:24.783Z,56.80
2019-05-18T00:11:24.749Z,56.80
2019-05-18T00:12:24.736Z,56.80
2019-05-18T00:13:24.725Z,56.80
2019-05-18T00:14:24.724Z,56.80
2019-05-18T00:15:24.718Z,56.80
2019-05-18T00:16:24.695Z,56.80
2019-05-18T00:17:25.617Z,56.80
2019-05-18T00:18:24.670Z,56.80
2019-05-18T00:19:24.657Z,56.80
2019-05-18T00:20:24.666Z,56.80
2019-05-18T00:21:24.644Z,56.80
2019-05-18T00:22:24.629Z,56.80
2019-05-18T00:23:24.649Z,56.80
2019-05-18T00:24:24.621Z,56.80
2019-05-18T00:25:24.612Z,56.80
2019-05-18T00:26:24.585Z,56.80
2019-05-18T00:27:24.575Z,56.80
2019-05-18T00:28:24.560Z,56.80
2019-05-18T00:29:24.547Z,56.80
2019-05-18T00:30:24.561Z,56.80
2019-05-18T00:31:24.534Z,56.80
2019-05-18T00:32:24.521Z,56.80
2019-05-18T00:33:24.523Z,56.70
2019-05-18T00:34:24.501Z,56.70
2019-05-18T00:35:24.486Z,56.70
2019-05-18T00:36:24.506Z,56.70
2019-05-18T00:37:24.471Z,56.70
2019-05-18T00:38:24.452Z,56.70
2019-05-18T00:39:24.508Z,56.70
2019-05-18T00:40:24.440Z,56.70
2019-05-18T00:41:24.421Z,56.70
2019-05-18T00:42:24.443Z,56.70
2019-05-18T00:43:24.407Z,56.70
2019-05-18T00:44:24.389Z,56.70
2019-05-18T00:45:24.383Z,56.70
2019-05-18T00:46:24.372Z,56.70
2019-05-18T00:47:24.361Z,56.70
2019-05-18T00:48:24.366Z,56.70
2019-05-18T00:49:24.333Z,56.70
2019-05-18T00:50:24.339Z,56.70
2019-05-18T00:51:24.316Z,56.70
2019-05-18T00:52:24.302Z,56.70
2019-05-18T00:53:24.311Z,56.70
2019-05-18T00:54:24.287Z,56.70
2019-05-18T00:55:24.271Z,56.70
2019-05-18T00:56:24.259Z,56.70
2019-05-18T00:57:24.252Z,56.70
2019-05-18T00:58:24.240Z,56.70
2019-05-18T00:59:24.250Z,56.70
2019-05-18T01:00:24.221Z,56.70
2019-05-18T01:01:24.205Z,56.70
2019-05-18T01:02:24.227Z,56.70
2019-05-18T01:03:24.190Z,56.70
2019-05-18T01:04:24.174Z,56.70
2019-05-18T01:05:24.164Z,56.70
2019-05-18T01:06:24.149Z,56.70
2019-05-18T01:07:24.144Z,56.70
2019-05-18T01:08:24.151Z,56.70
2019-05-18T01:09:24.159Z,56.70
2019-05-18T01:10:24.110Z,56.70
2019-05-18T01:11:24.101Z,56.70
2019-05-18T01:12:24.088Z,56.70
2019-05-18T01:13:24.105Z,56.70
2019-05-18T01:14:24.065Z,56.70
2019-05-18T01:15:24.059Z,56.70
2019-05-18T01:16:24.058Z,56.70
2019-05-18T01:17:24.034Z,56.70
2019-05-18T01:18:24.030Z,56.70
2019-05-18T01:19:24.040Z,56.70
2019-05-18T01:20:24.004Z,56.70
2019-05-18T01:21:23.993Z,56.70
2019-05-18T01:22:23.980Z,56.70
2019-05-18T01:23:23.976Z,56.70
2019-05-18T01:24:23.961Z,56.70
2019-05-18T01:25:23.973Z,56.70
2019-05-18T01:26:23.941Z,56.70
2019-05-18T01:27:23.925Z,56.70
2019-05-18T01:28:23.918Z,56.70
2019-05-18T01:29:23.912Z,56.70
2019-05-18T01:30:23.893Z,56.70
2019-05-18T01:31:23.906Z,56.70
2019-05-18T01:32:23.872Z,56.70
2019-05-18T01:33:23.868Z,56.70
2019-05-18T01:34:23.848Z,56.70
2019-05-18T01:35:23.899Z,56.70
2019-05-18T01:36:23.832Z,56.70
2019-05-18T01:37:23.847Z,56.70
2019-05-18T01:38:23.845Z,56.70
2019-05-18T01:39:23.797Z,56.70
2019-05-18T01:40:23.788Z,56.70
2019-05-18T01:41:23.779Z,56.70
2019-05-18T01:42:23.766Z,56.70
2019-05-18T01:43:23.776Z,56.70
2019-05-18T01:44:23.745Z,56.70
2019-05-18T01:45:23.733Z,56.70
2019-05-18T01:46:23.723Z,56.70
2019-05-18T01:47:23.707Z,56.70
2019-05-18T01:48:23.716Z,56.60
2019-05-18T01:49:23.691Z,56.60
2019-05-18T01:50:23.682Z,56.60
2019-05-18T01:51:23.666Z,56.72
2019-05-18T01:52:23.660Z,56.72
2019-05-18T01:53:23.672Z,56.72
2019-05-18T01:54:23.641Z,56.72
2019-05-18T01:55:23.629Z,56.72
2019-05-18T01:56:23.617Z,56.62
2019-05-18T01:57:23.609Z,56.62
2019-05-18T01:58:23.596Z,56.62
2019-05-18T01:59:23.605Z,56.60
2019-05-18T02:00:23.575Z,56.62
2019-05-18T02:01:23.579Z,56.60
2019-05-18T02:02:23.549Z,56.60
2019-05-18T02:03:25.973Z,56.60
2019-05-18T02:04:23.523Z,56.60
2019-05-18T02:05:23.515Z,56.60
2019-05-18T02:06:23.528Z,56.62
2019-05-18T02:07:23.498Z,56.60
2019-05-18T02:08:23.492Z,56.60
2019-05-18T02:09:23.472Z,56.60
2019-05-18T02:10:23.463Z,56.62
2019-05-18T02:11:23.473Z,56.62
2019-05-18T02:12:23.438Z,56.62
2019-05-18T02:13:23.427Z,56.60
2019-05-18T02:14:23.423Z,56.62
2019-05-18T02:15:23.424Z,56.62
2019-05-18T02:16:23.394Z,56.60
2019-05-18T02:17:23.388Z,56.60
2019-05-18T02:18:29.194Z,56.62
2019-05-18T02:19:24.918Z,56.60
2019-05-18T02:20:23.379Z,56.52
2019-05-18T02:21:23.344Z,56.52
2019-05-18T02:22:23.328Z,56.52
2019-05-18T02:23:23.324Z,56.52
2019-05-18T02:24:23.314Z,56.49
2019-05-18T02:25:23.330Z,56.52
2019-05-18T02:26:23.295Z,56.52
2019-05-18T02:27:23.278Z,56.49
2019-05-18T02:28:23.265Z,56.52
2019-05-18T02:29:23.260Z,56.49
2019-05-18T02:30:23.261Z,56.49
2019-05-18T02:31:23.252Z,56.52
2019-05-18T02:32:23.222Z,56.52
2019-05-18T02:33:23.214Z,56.52
2019-05-18T02:34:23.203Z,56.52
2019-05-18T02:35:23.191Z,56.52
2019-05-18T02:36:23.226Z,56.52
2019-05-18T02:37:23.171Z,56.52
2019-05-18T02:38:23.161Z,56.52
2019-05-18T02:39:23.156Z,56.52
2019-05-18T02:40:23.146Z,56.52
2019-05-18T02:41:23.133Z,56.49
2019-05-18T02:42:23.138Z,56.52
2019-05-18T02:43:23.103Z,56.52
2019-05-18T02:44:23.093Z,56.52
2019-05-18T02:45:23.085Z,56.52
2019-05-18T02:46:23.072Z,56.52
2019-05-18T02:47:23.086Z,56.52
2019-05-18T02:48:23.053Z,56.52
2019-05-18T02:49:23.037Z,56.52
2019-05-18T02:50:23.028Z,56.52
2019-05-18T02:51:23.035Z,56.52
2019-05-18T02:52:23.013Z,56.52
2019-05-18T02:53:23.028Z,56.52
2019-05-18T02:54:22.991Z,56.52
2019-05-18T02:55:22.974Z,56.52
2019-05-18T02:56:22.970Z,56.52
2019-05-18T02:57:22.961Z,56.52
2019-05-18T02:58:22.948Z,56.52
2019-05-18T02:59:22.959Z,56.52
2019-05-18T03:00:22.929Z,56.52
2019-05-18T03:01:22.910Z,56.52
2019-05-18T03:02:22.926Z,56.52
2019-05-18T03:03:22.892Z,56.52
2019-05-18T03:04:22.879Z,56.42
2019-05-18T03:05:22.864Z,56.52
2019-05-18T03:06:22.917Z,56.52
2019-05-18T03:07:22.875Z,56.42
2019-05-18T03:08:22.837Z,56.42
2019-05-18T03:09:22.827Z,56.42
2019-05-18T03:10:22.813Z,56.42
2019-05-18T03:11:22.812Z,56.42
2019-05-18T03:12:22.791Z,56.42
2019-05-18T03:13:22.804Z,56.42
2019-05-18T03:14:22.771Z,56.42
2019-05-18T03:15:22.757Z,56.42
2019-05-18T03:16:22.798Z,56.42
2019-05-18T03:17:22.740Z,56.42
2019-05-18T03:18:22.767Z,56.42
2019-05-18T03:19:22.720Z,56.42
2019-05-18T03:20:22.706Z,56.42
2019-05-18T03:21:22.706Z,56.42
2019-05-18T03:22:22.690Z,56.42
2019-05-18T03:23:22.673Z,56.42
2019-05-18T03:24:22.688Z,56.42
2019-05-18T03:25:22.658Z,56.42
2019-05-18T03:26:22.642Z,56.42
2019-05-18T03:27:22.635Z,56.42
2019-05-18T03:28:22.625Z,56.42
2019-05-18T03:29:22.627Z,56.42
2019-05-18T03:30:22.596Z,56.42
2019-05-18T03:31:22.594Z,56.42
2019-05-18T03:32:22.575Z,56.42
2019-05-18T03:33:28.585Z,56.42
2019-05-18T03:34:23.594Z,56.42
2019-05-18T03:35:22.543Z,56.42
2019-05-18T03:36:22.531Z,56.42
2019-05-18T03:37:22.530Z,56.42
2019-05-18T03:38:22.509Z,56.42
2019-05-18T03:39:22.508Z,56.42
2019-05-18T03:40:22.508Z,56.42
2019-05-18T03:41:22.490Z,56.42
2019-05-18T03:42:22.476Z,56.32
2019-05-18T03:43:22.463Z,56.42
2019-05-18T03:44:22.453Z,56.32
2019-05-18T03:45:22.462Z,56.32
2019-05-18T03:46:24.091Z,56.32
2019-05-18T03:47:22.423Z,56.32
2019-05-18T03:48:22.407Z,56.32
2019-05-18T03:49:27.197Z,56.32
2019-05-18T03:50:23.409Z,56.32
2019-05-18T03:51:22.377Z,56.32
2019-05-18T03:52:22.364Z,56.32
2019-05-18T03:53:22.379Z,56.32
2019-05-18T03:54:22.342Z,56.32
2019-05-18T03:55:22.329Z,56.32
2019-05-18T03:56:22.321Z,56.32
2019-05-18T03:57:22.314Z,56.32
2019-05-18T03:58:22.328Z,56.32
2019-05-18T03:59:22.298Z,56.22
2019-05-18T04:00:22.283Z,56.32
2019-05-18T04:01:22.268Z,56.32
2019-05-18T04:02:22.254Z,56.32
2019-05-18T04:03:22.248Z,56.22
2019-05-18T04:04:22.272Z,56.22
2019-05-18T04:05:22.234Z,56.22
2019-05-18T04:06:22.234Z,56.22
2019-05-18T04:07:22.211Z,56.22
2019-05-18T04:08:22.196Z,56.22
2019-05-18T04:09:22.193Z,56.22
2019-05-18T04:10:22.209Z,56.22
2019-05-18T04:11:22.162Z,56.22
2019-05-18T04:12:22.155Z,56.22
2019-05-18T04:13:22.141Z,56.22
2019-05-18T04:14:22.131Z,56.22
2019-05-18T04:15:22.116Z,56.22
2019-05-18T04:16:22.131Z,56.22
2019-05-18T04:17:22.102Z,56.22
2019-05-18T04:18:22.094Z,56.22
2019-05-18T04:19:22.080Z,56.22
2019-05-18T04:20:22.105Z,56.22
2019-05-18T04:21:22.059Z,56.22
2019-05-18T04:22:22.041Z,56.22
2019-05-18T04:23:22.035Z,56.22
2019-05-18T04:24:22.027Z,56.22
2019-05-18T04:25:22.009Z,56.22
2019-05-18T04:26:22.027Z,56.22
2019-05-18T04:27:22.004Z,56.22
2019-05-18T04:28:21.981Z,56.22
2019-05-18T04:29:21.974Z,56.22
2019-05-18T04:30:21.996Z,56.22
2019-05-18T04:31:21.945Z,56.22
2019-05-18T04:32:21.939Z,56.22
2019-05-18T04:33:21.924Z,56.22
2019-05-18T04:34:21.919Z,56.22
2019-05-18T04:35:21.907Z,56.22
2019-05-18T04:36:21.909Z,56.22
2019-05-18T04:37:21.888Z,56.22
2019-05-18T04:38:21.877Z,56.22
2019-05-18T04:39:21.858Z,56.22
2019-05-18T04:40:21.851Z,56.22
2019-05-18T04:41:21.867Z,56.22
2019-05-18T04:42:21.828Z,56.22
2019-05-18T04:43:21.827Z,56.22
2019-05-18T04:44:21.809Z,56.22
2019-05-18T04:45:21.791Z,56.22
2019-05-18T04:46:21.783Z,56.22
2019-05-18T04:47:21.795Z,56.22
2019-05-18T04:48:21.767Z,56.22
2019-05-18T04:49:21.753Z,56.22
2019-05-18T04:50:21.739Z,56.22
2019-05-18T04:51:21.727Z,56.22
2019-05-18T04:52:21.738Z,56.22
2019-05-18T04:53:21.708Z,56.22
2019-05-18T04:54:21.704Z,56.22
2019-05-18T04:55:21.693Z,56.22
2019-05-18T04:56:21.679Z,56.22
2019-05-18T04:57:21.683Z,56.22
2019-05-18T04:58:21.659Z,56.22
2019-05-18T04:59:21.642Z,56.22
2019-05-18T05:00:21.639Z,56.22
2019-05-18T05:01:21.624Z,56.22
2019-05-18T05:02:21.631Z,56.22
2019-05-18T05:03:21.604Z,56.22
2019-05-18T05:04:21.593Z,56.22
2019-05-18T05:05:21.579Z,56.22
2019-05-18T05:06:21.573Z,56.22
2019-05-18T05:07:21.566Z,56.22
2019-05-18T05:08:21.570Z,56.22
2019-05-18T05:09:21.533Z,56.22
2019-05-18T05:10:21.531Z,56.22
2019-05-18T05:11:21.518Z,56.22
2019-05-18T05:12:21.508Z,56.22
2019-05-18T05:13:21.517Z,56.22
2019-05-18T05:14:21.484Z,56.22
2019-05-18T05:15:21.471Z,56.22
2019-05-18T05:16:21.463Z,56.22
2019-05-18T05:17:21.453Z,56.22
2019-05-18T05:18:21.479Z,56.22
2019-05-18T05:19:21.427Z,56.22
2019-05-18T05:20:21.417Z,56.22
2019-05-18T05:21:21.405Z,56.22
2019-05-18T05:22:21.403Z,56.22
2019-05-18T05:23:21.385Z,56.22
2019-05-18T05:24:21.398Z,56.22
2019-05-18T05:25:21.367Z,56.22
2019-05-18T05:26:21.352Z,56.22
2019-05-18T05:27:21.352Z,56.22
2019-05-18T05:28:21.331Z,56.22
2019-05-18T05:29:21.338Z,56.22
2019-05-18T05:30:21.322Z,56.22
2019-05-18T05:31:21.300Z,56.22
2019-05-18T05:32:21.295Z,56.22
2019-05-18T05:33:21.281Z,56.22
2019-05-18T05:34:21.273Z,56.22
2019-05-18T05:35:21.280Z,56.22
2019-05-18T05:36:21.298Z,56.22
2019-05-18T05:37:21.232Z,56.22
2019-05-18T05:38:21.229Z,56.22
2019-05-18T05:39:21.211Z,56.22
2019-05-18T05:40:21.203Z,56.22
2019-05-18T05:41:21.209Z,56.22
2019-05-18T05:42:21.181Z,56.22
2019-05-18T05:43:21.169Z,56.22
2019-05-18T05:44:21.157Z,56.22
2019-05-18T05:45:21.145Z,56.22
2019-05-18T05:46:21.134Z,56.22
2019-05-18T05:47:21.164Z,56.22
2019-05-18T05:48:21.112Z,56.22
2019-05-18T05:49:21.104Z,56.22
2019-05-18T05:50:34.729Z,56.22
2019-05-18T05:51:22.082Z,56.22
2019-05-18T05:52:21.077Z,56.22
2019-05-18T05:53:21.083Z,56.22
2019-05-18T05:54:21.048Z,56.22
2019-05-18T05:55:21.040Z,56.22
2019-05-18T05:56:21.032Z,56.22
2019-05-18T05:57:21.016Z,56.22
2019-05-18T05:58:21.039Z,56.22
2019-05-18T05:59:20.996Z,56.22
2019-05-18T06:00:20.989Z,56.22
2019-05-18T06:01:20.975Z,56.22
2019-05-18T06:02:20.963Z,56.22
2019-05-18T06:03:20.960Z,56.22
2019-05-18T06:04:20.978Z,56.22
2019-05-18T06:05:20.929Z,56.22
2019-05-18T06:06:23.060Z,56.22
2019-05-18T06:07:20.914Z,56.22
2019-05-18T06:08:20.904Z,56.22
2019-05-18T06:09:20.891Z,56.22
2019-05-18T06:10:20.901Z,56.22
2019-05-18T06:11:20.869Z,56.22
2019-05-18T06:12:20.863Z,56.22
2019-05-18T06:13:20.851Z,56.22
2019-05-18T06:14:20.846Z,56.22
2019-05-18T06:15:20.845Z,56.22
2019-05-18T06:16:20.820Z,56.22
2019-05-18T06:17:20.801Z,56.22
2019-05-18T06:18:20.796Z,56.22
2019-05-18T06:19:20.780Z,56.22
2019-05-18T06:20:20.803Z,56.22
2019-05-18T06:21:20.758Z,56.22
2019-05-18T06:22:20.755Z,56.22
2019-05-18T06:23:20.744Z,56.22
2019-05-18T06:24:20.729Z,56.22
2019-05-18T06:25:20.723Z,56.22
2019-05-18T06:26:23.745Z,56.22
2019-05-18T06:27:20.696Z,56.22
2019-05-18T06:28:20.686Z,56.22
2019-05-18T06:29:20.678Z,56.22
2019-05-18T06:30:20.692Z,56.22
2019-05-18T06:31:23.049Z,56.22
2019-05-18T06:32:20.640Z,56.22
2019-05-18T06:33:20.637Z,56.22
2019-05-18T06:34:20.622Z,56.22
2019-05-18T06:35:20.613Z,56.22
2019-05-18T06:36:20.603Z,56.20
2019-05-18T06:37:20.611Z,56.20
2019-05-18T06:38:20.582Z,56.22
2019-05-18T06:39:20.568Z,56.20
2019-05-18T06:40:20.556Z,56.22
2019-05-18T06:41:20.552Z,56.22
2019-05-18T06:42:20.568Z,56.22
2019-05-18T06:43:20.528Z,56.20
2019-05-18T06:44:20.542Z,56.22
2019-05-18T06:45:20.499Z,56.20
2019-05-18T06:46:20.493Z,56.22
2019-05-18T06:47:20.478Z,56.22
2019-05-18T06:48:20.507Z,56.22
2019-05-18T06:49:20.458Z,56.22
2019-05-18T06:50:20.453Z,56.22
2019-05-18T06:51:20.440Z,56.22
2019-05-18T06:52:20.430Z,56.22
2019-05-18T06:53:23.330Z,56.22
2019-05-18T06:54:20.424Z,56.22
2019-05-18T06:55:20.394Z,56.22
2019-05-18T06:56:20.385Z,56.22
2019-05-18T06:57:20.377Z,56.22
2019-05-18T06:58:20.366Z,56.20
2019-05-18T06:59:20.349Z,56.22
2019-05-18T07:00:20.360Z,56.22
2019-05-18T07:01:20.328Z,56.20
2019-05-18T07:02:20.317Z,56.22
2019-05-18T07:03:20.319Z,56.22
2019-05-18T07:04:20.298Z,56.22
2019-05-18T07:05:20.312Z,56.20
2019-05-18T07:06:20.277Z,56.20
2019-05-18T07:07:20.262Z,56.22
2019-05-18T07:08:20.255Z,56.22
2019-05-18T07:09:20.247Z,56.20
2019-05-18T07:10:20.230Z,56.22
2019-05-18T07:11:20.247Z,56.20
2019-05-18T07:12:20.215Z,56.22
2019-05-18T07:13:20.197Z,56.22
2019-05-18T07:14:25.640Z,56.22
2019-05-18T07:15:21.177Z,56.20
2019-05-18T07:16:20.193Z,56.20
2019-05-18T07:17:20.158Z,56.22
2019-05-18T07:18:20.145Z,56.32
2019-05-18T07:19:20.140Z,56.22
2019-05-18T07:20:20.129Z,56.29
2019-05-18T07:21:22.615Z,56.32
2019-05-18T07:22:20.125Z,56.20
2019-05-18T07:23:20.096Z,56.20
2019-05-18T07:24:20.083Z,56.20
2019-05-18T07:25:20.073Z,56.20
2019-05-18T07:26:20.068Z,56.32
2019-05-18T07:27:20.082Z,56.20
2019-05-18T07:28:20.047Z,56.20
2019-05-18T07:29:20.028Z,56.22
2019-05-18T07:30:20.023Z,56.22
2019-05-18T07:31:20.007Z,56.20
2019-05-18T07:32:19.991Z,56.32
2019-05-18T07:33:20.001Z,56.20
2019-05-18T07:34:19.968Z,56.29
2019-05-18T07:35:19.960Z,56.20
2019-05-18T07:36:19.948Z,56.20
2019-05-18T07:37:19.947Z,56.29
2019-05-18T07:38:19.957Z,56.29
2019-05-18T07:39:19.921Z,56.29
2019-05-18T07:40:19.907Z,56.20
2019-05-18T07:41:19.898Z,56.20
2019-05-18T07:42:19.893Z,56.29
2019-05-18T07:43:19.877Z,56.29
2019-05-18T07:44:19.886Z,56.29
2019-05-18T07:45:19.853Z,56.29
2019-05-18T07:46:19.842Z,56.29
2019-05-18T07:47:19.836Z,56.29
2019-05-18T07:48:19.817Z,56.29
2019-05-18T07:49:19.813Z,56.29
2019-05-18T07:50:19.823Z,56.29
2019-05-18T07:51:19.815Z,56.29
2019-05-18T07:52:19.782Z,56.29
2019-05-18T07:53:19.766Z,56.29
2019-05-18T07:54:19.753Z,56.29
2019-05-18T07:55:19.749Z,56.29
2019-05-18T07:56:19.733Z,56.40
2019-05-18T07:57:19.748Z,56.49
2019-05-18T07:58:19.714Z,56.70
2019-05-18T07:59:20.049Z,56.70
2019-05-18T08:00:19.691Z,56.80
2019-05-18T08:01:19.679Z,56.80
2019-05-18T08:02:19.694Z,56.80
2019-05-18T08:03:19.654Z,56.80
2019-05-18T08:04:19.644Z,56.70
2019-05-18T08:05:19.641Z,56.80
2019-05-18T08:06:19.632Z,56.80
2019-05-18T08:07:19.654Z,56.49
2019-05-18T08:08:19.605Z,56.49
2019-05-18T08:09:19.597Z,56.40
2019-05-18T08:10:19.593Z,56.29
2019-05-18T08:11:19.583Z,56.20
2019-05-18T08:12:19.565Z,56.29
2019-05-18T08:13:19.574Z,56.09
2019-05-18T08:14:19.541Z,56.09
2019-05-18T08:15:19.539Z,56.09
2019-05-18T08:16:19.519Z,56.20
2019-05-18T08:17:19.508Z,56.20
2019-05-18T08:18:19.536Z,56.29
2019-05-18T08:19:19.483Z,56.49
2019-05-18T08:20:19.472Z,56.60
2019-05-18T08:21:19.469Z,56.40
2019-05-18T08:22:19.456Z,56.40
2019-05-18T08:23:19.443Z,56.29
2019-05-18T08:24:19.454Z,56.29
2019-05-18T08:25:19.419Z,56.29
2019-05-18T08:26:19.408Z,56.20
2019-05-18T08:27:19.402Z,56.09
2019-05-18T08:28:19.387Z,56.09
2019-05-18T08:29:19.399Z,56.09
2019-05-18T08:30:19.371Z,56.09
2019-05-18T08:31:19.362Z,56.09
2019-05-18T08:32:19.364Z,56.09
2019-05-18T08:33:19.335Z,56.09
2019-05-18T08:34:19.323Z,56.09
2019-05-18T08:35:19.309Z,56.09
2019-05-18T08:36:19.305Z,56.09
2019-05-18T08:37:19.292Z,56.09
2019-05-18T08:38:19.311Z,56.09
2019-05-18T08:39:19.273Z,56.09
2019-05-18T08:40:19.256Z,56.09
2019-05-18T08:41:19.250Z,56.09
2019-05-18T08:42:19.238Z,56.09
2019-05-18T08:43:19.226Z,56.09
2019-05-18T08:44:19.249Z,56.09
2019-05-18T08:45:19.209Z,56.09
2019-05-18T08:46:19.193Z,56.09
2019-05-18T08:47:19.183Z,56.09
2019-05-18T08:48:19.172Z,56.09
2019-05-18T08:49:19.164Z,56.09
2019-05-18T08:50:19.173Z,56.09
2019-05-18T08:51:19.143Z,56.09
2019-05-18T08:52:19.125Z,56.09
2019-05-18T08:53:19.120Z,56.09
2019-05-18T08:54:19.112Z,56.20
2019-05-18T08:55:19.112Z,56.20
2019-05-18T08:56:19.107Z,56.20
2019-05-18T08:57:19.079Z,56.09
2019-05-18T08:58:19.065Z,56.09
2019-05-18T08:59:19.053Z,56.09
2019-05-18T09:00:19.061Z,56.20
2019-05-18T09:01:19.031Z,56.20
2019-05-18T09:02:19.020Z,56.29
2019-05-18T09:03:19.007Z,56.40
2019-05-18T09:04:19.036Z,56.29
2019-05-18T09:05:18.985Z,56.20
2019-05-18T09:06:18.976Z,56.20
2019-05-18T09:07:18.970Z,56.09
2019-05-18T09:08:19.021Z,56.09
2019-05-18T09:09:18.946Z,56.07
2019-05-18T09:10:18.958Z,56.07
2019-05-18T09:11:18.953Z,56.07
2019-05-18T09:12:18.962Z,56.20
2019-05-18T09:13:18.903Z,56.16
2019-05-18T09:14:18.892Z,56.27
2019-05-18T09:15:18.881Z,56.37
2019-05-18T09:16:18.871Z,56.47
2019-05-18T09:17:18.894Z,56.57
2019-05-18T09:18:18.848Z,56.67
2019-05-18T09:19:18.842Z,56.67
2019-05-18T09:20:18.830Z,56.67
2019-05-18T09:21:18.811Z,56.77
2019-05-18T09:22:23.157Z,56.77
2019-05-18T09:23:18.818Z,56.67
2019-05-18T09:24:18.784Z,56.67
2019-05-18T09:25:18.774Z,56.77
2019-05-18T09:26:18.760Z,56.77
2019-05-18T09:27:18.756Z,56.67
2019-05-18T09:28:18.761Z,56.77
2019-05-18T09:29:19.040Z,56.67
2019-05-18T09:30:18.724Z,56.57
2019-05-18T09:31:18.707Z,56.57
2019-05-18T09:32:18.696Z,56.47
2019-05-18T09:33:18.682Z,56.47
2019-05-18T09:34:18.697Z,56.47
2019-05-18T09:35:18.662Z,56.47
2019-05-18T09:36:18.689Z,56.47
2019-05-18T09:37:18.641Z,56.47
2019-05-18T09:38:18.630Z,56.47
2019-05-18T09:39:18.624Z,56.47
2019-05-18T09:40:18.608Z,56.47
2019-05-18T09:41:18.600Z,56.47
2019-05-18T09:42:18.607Z,56.47
2019-05-18T09:43:18.577Z,56.37
2019-05-18T09:44:18.564Z,56.37
2019-05-18T09:45:18.558Z,56.37
2019-05-18T09:46:18.543Z,56.37
2019-05-18T09:47:18.559Z,56.37
2019-05-18T09:48:18.530Z,56.37
2019-05-18T09:49:18.511Z,56.37
2019-05-18T09:50:18.502Z,56.37
2019-05-18T09:51:18.495Z,56.37
2019-05-18T09:52:18.487Z,56.37
2019-05-18T09:53:18.510Z,56.37
2019-05-18T09:54:18.459Z,56.47
2019-05-18T09:55:18.452Z,56.47
2019-05-18T09:56:18.435Z,56.47
2019-05-18T09:57:18.426Z,56.47
2019-05-18T09:58:18.426Z,56.47
2019-05-18T09:59:18.431Z,56.37
2019-05-18T10:00:18.399Z,56.37
2019-05-18T10:01:18.387Z,56.37
2019-05-18T10:02:18.377Z,56.37
2019-05-18T10:03:18.363Z,56.37
2019-05-18T10:04:18.368Z,56.37
2019-05-18T10:05:18.380Z,56.47
2019-05-18T10:06:18.329Z,56.47
2019-05-18T10:07:18.320Z,56.57
2019-05-18T10:08:18.318Z,56.47
2019-05-18T10:09:18.295Z,56.57
2019-05-18T10:10:18.290Z,56.57
2019-05-18T10:11:18.296Z,56.67
2019-05-18T10:12:18.266Z,56.67
2019-05-18T10:13:18.254Z,56.97
2019-05-18T10:14:18.242Z,56.87
2019-05-18T10:15:18.235Z,56.87
2019-05-18T10:16:18.223Z,56.97
2019-05-18T10:17:18.231Z,56.97
2019-05-18T10:18:18.200Z,57.07
2019-05-18T10:19:18.192Z,56.97
2019-05-18T10:20:18.180Z,56.97
2019-05-18T10:21:18.166Z,56.97
2019-05-18T10:22:18.153Z,56.97
2019-05-18T10:23:18.187Z,56.97
2019-05-18T10:24:18.132Z,56.97
2019-05-18T10:25:18.130Z,56.84
2019-05-18T10:26:18.126Z,56.95
2019-05-18T10:27:18.105Z,56.95
2019-05-18T10:28:18.093Z,56.95
2019-05-18T10:29:18.102Z,56.95
2019-05-18T10:30:18.074Z,56.95
2019-05-18T10:31:18.060Z,56.84
2019-05-18T10:32:18.053Z,56.95
2019-05-18T10:33:18.037Z,56.95
2019-05-18T10:34:18.068Z,56.95
2019-05-18T10:35:18.018Z,56.84
2019-05-18T10:36:18.004Z,56.84
2019-05-18T10:37:18.000Z,56.84
2019-05-18T10:38:17.991Z,56.74
2019-05-18T10:39:17.972Z,56.74
2019-05-18T10:40:17.994Z,56.74
2019-05-18T10:41:17.950Z,56.84
2019-05-18T10:42:17.948Z,56.84
2019-05-18T10:43:17.931Z,56.87
2019-05-18T10:44:17.926Z,56.87
2019-05-18T10:45:17.909Z,56.84
2019-05-18T10:46:17.917Z,56.97
2019-05-18T10:47:17.897Z,56.95
2019-05-18T10:48:17.876Z,56.95
2019-05-18T10:49:17.866Z,56.95
2019-05-18T10:50:17.858Z,56.95
2019-05-18T10:51:17.863Z,56.95
2019-05-18T10:52:17.834Z,56.95
2019-05-18T10:53:28.321Z,56.95
2019-05-18T10:54:18.829Z,56.95
2019-05-18T10:55:17.801Z,57.04
2019-05-18T10:56:17.788Z,57.04
2019-05-18T10:57:17.782Z,56.95
2019-05-18T10:58:17.764Z,56.95
2019-05-18T10:59:17.795Z,57.04
2019-05-18T11:00:17.745Z,57.04
2019-05-18T11:01:17.733Z,57.04
2019-05-18T11:02:17.728Z,56.95
2019-05-18T11:03:17.709Z,57.04
2019-05-18T11:04:17.705Z,57.04
2019-05-18T11:05:17.717Z,57.04
2019-05-18T11:06:17.685Z,57.04
2019-05-18T11:07:17.670Z,57.04
2019-05-18T11:08:17.659Z,57.04
2019-05-18T11:09:17.649Z,57.04
2019-05-18T11:10:17.637Z,56.95
2019-05-18T11:11:17.648Z,56.95
2019-05-18T11:12:17.616Z,56.97
2019-05-18T11:13:17.689Z,56.97
2019-05-18T11:14:18.959Z,56.95
2019-05-18T11:15:17.594Z,56.97
2019-05-18T11:16:17.574Z,56.97
2019-05-18T11:17:17.564Z,56.87
2019-05-18T11:18:17.562Z,56.87
2019-05-18T11:19:17.567Z,56.87
2019-05-18T11:20:17.535Z,56.87
2019-05-18T11:21:17.527Z,56.77
2019-05-18T11:22:17.511Z,56.77
2019-05-18T11:23:17.500Z,56.77
2019-05-18T11:24:17.511Z,56.87
2019-05-18T11:25:17.477Z,56.87
2019-05-18T11:26:17.472Z,56.77
2019-05-18T11:27:17.454Z,56.77
2019-05-18T11:28:17.451Z,56.77
2019-05-18T11:29:17.460Z,56.77
2019-05-18T11:30:17.428Z,56.77
2019-05-18T11:31:17.414Z,56.77
2019-05-18T11:32:17.403Z,56.77
2019-05-18T11:33:17.397Z,56.77
2019-05-18T11:34:17.417Z,56.77
2019-05-18T11:35:17.370Z,56.77
2019-05-18T11:36:17.357Z,56.77
2019-05-18T11:37:17.354Z,56.77
2019-05-18T11:38:17.343Z,56.77
2019-05-18T11:39:17.328Z,56.77
2019-05-18T11:40:17.348Z,56.77
2019-05-18T11:41:17.308Z,56.77
2019-05-18T11:42:17.298Z,56.77
2019-05-18T11:43:17.283Z,56.77
2019-05-18T11:44:17.277Z,56.77
2019-05-18T11:45:17.262Z,56.87
2019-05-18T11:46:17.270Z,56.77
2019-05-18T11:47:17.246Z,56.77
2019-05-18T11:48:17.227Z,56.77
2019-05-18T11:49:17.228Z,56.77
2019-05-18T11:50:17.208Z,56.77
2019-05-18T11:51:17.199Z,56.77
2019-05-18T11:52:17.206Z,56.77
2019-05-18T11:53:17.186Z,56.87
2019-05-18T11:54:17.171Z,56.97
2019-05-18T11:55:17.170Z,56.97
2019-05-18T11:56:17.149Z,56.97
2019-05-18T11:57:17.132Z,56.97
2019-05-18T11:58:17.144Z,56.97
2019-05-18T11:59:17.168Z,56.97
2019-05-18T12:00:17.107Z,56.97
2019-05-18T12:01:17.092Z,56.87
2019-05-18T12:02:17.113Z,57.07
2019-05-18T12:03:17.104Z,57.07
2019-05-18T12:04:17.071Z,57.07
2019-05-18T12:05:17.068Z,57.07
2019-05-18T12:06:17.044Z,56.97
2019-05-18T12:07:17.028Z,56.97
2019-05-18T12:08:17.072Z,56.97
2019-05-18T12:09:17.003Z,56.97
2019-05-18T12:10:18.605Z,56.97
2019-05-18T12:11:16.981Z,56.87
2019-05-18T12:12:16.971Z,56.87
2019-05-18T12:13:16.966Z,56.87
2019-05-18T12:14:16.975Z,56.87
2019-05-18T12:15:16.938Z,56.87
2019-05-18T12:16:17.603Z,56.87
2019-05-18T12:17:16.919Z,56.77
2019-05-18T12:18:16.913Z,56.77
2019-05-18T12:19:16.900Z,56.87
2019-05-18T12:20:16.902Z,56.87
2019-05-18T12:21:16.871Z,56.87
2019-05-18T12:22:16.865Z,56.77
2019-05-18T12:23:16.851Z,56.77
2019-05-18T12:24:16.844Z,56.77
2019-05-18T12:25:16.871Z,56.77
2019-05-18T12:26:16.816Z,56.67
2019-05-18T12:27:16.810Z,56.67
2019-05-18T12:28:16.803Z,56.67
2019-05-18T12:29:16.787Z,56.67
2019-05-18T12:30:16.775Z,56.77
2019-05-18T12:31:16.800Z,56.87
2019-05-18T12:32:16.755Z,56.97
2019-05-18T12:33:16.749Z,56.97
2019-05-18T12:34:16.736Z,57.07
2019-05-18T12:35:16.725Z,57.17
2019-05-18T12:36:16.717Z,57.17
2019-05-18T12:37:16.727Z,57.17
2019-05-18T12:38:16.687Z,57.17
2019-05-18T12:39:16.678Z,57.07
2019-05-18T12:40:16.666Z,57.07
2019-05-18T12:41:16.671Z,57.07
2019-05-18T12:42:16.681Z,57.07
2019-05-18T12:43:16.654Z,57.07
2019-05-18T12:44:16.628Z,57.07
2019-05-18T12:45:16.618Z,57.07
2019-05-18T12:46:16.606Z,56.97
2019-05-18T12:47:16.596Z,56.97
2019-05-18T12:48:16.612Z,56.97
2019-05-18T12:49:16.579Z,56.97
2019-05-18T12:50:16.564Z,56.97
2019-05-18T12:51:16.555Z,56.97
2019-05-18T12:52:16.544Z,56.97